createdAt,value
2023-04-05T00:00:39.534Z,7.80
2023-04-05T00:03:07.109Z,6.63
2023-04-05T00:05:34.693Z,7.10
2023-04-05T00:08:02.912Z,6.43
2023-04-05T00:10:31.609Z,6.93
2023-04-05T00:12:58.986Z,6.40
2023-04-05T00:15:27.779Z,5.80
2023-04-05T00:17:56.131Z,6.67
2023-04-05T00:20:23.211Z,6.43
2023-04-05T00:22:53.074Z,6.70
2023-04-05T00:25:21.847Z,6.73
2023-04-05T00:27:48.922Z,6.43
2023-04-05T00:30:21.455Z,6.53
2023-04-05T00:32:51.670Z,6.70
2023-04-05T00:35:18.839Z,6.70
2023-04-05T00:37:45.997Z,6.93
2023-04-05T00:40:13.205Z,7.17
2023-04-05T00:42:40.329Z,6.87
2023-04-05T00:45:08.314Z,6.87
2023-04-05T00:47:35.492Z,6.90
2023-04-05T00:50:03.633Z,6.93
2023-04-05T00:52:32.387Z,7.50
2023-04-05T00:54:59.731Z,6.83
2023-04-05T00:57:26.877Z,7.03
2023-04-05T00:59:54.036Z,7.10
2023-04-05T01:02:39.488Z,6.93
2023-04-05T01:05:36.407Z,6.73
2023-04-05T01:08:26.222Z,6.50
2023-04-05T01:10:59.376Z,6.03
2023-04-05T01:13:26.835Z,6.57
2023-04-05T01:15:54.061Z,6.90
2023-04-05T01:18:22.054Z,7.67
2023-04-05T01:21:34.198Z,6.97
2023-04-05T01:24:35.000Z,7.47
2023-04-05T01:27:45.844Z,6.20
2023-04-05T01:30:24.442Z,7.07
2023-04-05T01:33:25.437Z,7.23
2023-04-05T01:36:17.945Z,6.57
2023-04-05T01:38:49.213Z,7.10
2023-04-05T01:41:16.628Z,6.33
2023-04-05T01:43:43.800Z,7.70
2023-04-05T01:46:10.982Z,6.67
2023-04-05T01:48:38.128Z,7.60
2023-04-05T01:51:05.490Z,6.63
2023-04-05T01:53:32.966Z,6.93
2023-04-05T01:56:03.203Z,7.13
2023-04-05T01:58:30.360Z,7.00
2023-04-05T02:00:57.985Z,7.63
2023-04-05T02:03:25.872Z,6.50
2023-04-05T02:05:53.081Z,7.03
2023-04-05T02:08:20.161Z,7.10
2023-04-05T02:10:47.683Z,7.57
2023-04-05T02:13:14.918Z,7.57
2023-04-05T02:15:47.484Z,7.40
2023-04-05T02:18:14.473Z,7.67
2023-04-05T02:20:42.418Z,7.13
2023-04-05T02:23:09.745Z,7.20
2023-04-05T02:25:36.988Z,7.03
2023-04-05T02:28:04.145Z,7.10
2023-04-05T02:30:31.840Z,8.13
2023-04-05T02:32:59.160Z,7.40
2023-04-05T02:35:26.278Z,7.80
2023-04-05T02:37:53.514Z,7.60
2023-04-05T02:40:21.910Z,7.13
2023-04-05T02:42:49.070Z,7.50
2023-04-05T02:45:16.167Z,7.43
2023-04-05T02:47:43.255Z,7.10
2023-04-05T02:50:10.557Z,7.30
2023-04-05T02:52:40.859Z,7.90
2023-04-05T02:55:08.508Z,7.60
2023-04-05T02:57:35.799Z,7.57
2023-04-05T03:00:05.347Z,7.43
2023-04-05T03:02:32.493Z,7.60
2023-04-05T03:05:02.557Z,6.80
2023-04-05T03:07:30.573Z,7.73
2023-04-05T03:09:58.234Z,8.33
2023-04-05T03:12:25.378Z,8.50
2023-04-05T03:14:53.192Z,8.93
2023-04-05T03:17:20.487Z,8.10
2023-04-05T03:19:48.240Z,8.37
2023-04-05T03:22:16.529Z,7.77
2023-04-05T03:24:44.592Z,8.77
2023-04-05T03:27:13.264Z,8.40
2023-04-05T03:29:45.067Z,8.93
2023-04-05T03:32:14.060Z,8.00
2023-04-05T03:34:41.232Z,7.57
2023-04-05T03:37:08.978Z,7.67
2023-04-05T03:39:36.868Z,7.67
2023-04-05T03:42:04.093Z,8.20
2023-04-05T03:44:31.492Z,7.90
2023-04-05T03:47:01.457Z,8.40
2023-04-05T03:49:43.719Z,8.07
2023-04-05T03:52:36.900Z,8.50
2023-04-05T03:55:34.913Z,8.67
2023-04-05T03:58:39.073Z,7.60
2023-04-05T04:01:27.643Z,8.80
2023-04-05T04:03:55.570Z,7.83
2023-04-05T04:06:39.657Z,7.80
2023-04-05T04:09:21.476Z,8.00
2023-04-05T04:11:51.927Z,7.50
2023-04-05T04:14:21.956Z,8.40
2023-04-05T04:16:54.999Z,8.30
2023-04-05T04:19:25.392Z,8.07
2023-04-05T04:21:59.272Z,8.30
2023-04-05T04:24:30.361Z,7.90
2023-04-05T04:27:07.012Z,8.93
2023-04-05T04:30:31.144Z,8.60
2023-04-05T04:33:03.363Z,9.07
2023-04-05T04:35:41.118Z,8.23
2023-04-05T04:41:15.701Z,8.00
2023-04-05T04:44:04.923Z,8.63
2023-04-05T04:46:43.216Z,8.20
2023-04-05T04:52:08.650Z,8.53
2023-04-05T04:54:42.746Z,9.70
2023-04-05T04:57:11.753Z,9.50
2023-04-05T05:00:03.407Z,8.27
2023-04-05T05:02:38.057Z,7.93
2023-04-05T05:05:07.698Z,8.83
2023-04-05T05:07:44.906Z,8.50
2023-04-05T05:10:16.298Z,8.97
2023-04-05T05:12:45.079Z,8.50
2023-04-05T05:15:15.252Z,9.50
2023-04-05T05:20:34.447Z,9.30
2023-04-05T05:23:06.475Z,9.60
2023-04-05T05:25:51.378Z,8.63
2023-04-05T05:28:26.584Z,8.70
2023-04-05T05:30:53.783Z,9.27
2023-04-05T05:33:21.236Z,9.20
2023-04-05T05:35:52.833Z,8.80
2023-04-05T05:38:20.043Z,8.30
2023-04-05T05:40:47.159Z,10.10
2023-04-05T05:43:15.642Z,9.37
2023-04-05T05:45:42.936Z,8.97
2023-04-05T05:48:10.028Z,10.47
2023-04-05T05:50:39.506Z,9.80
2023-04-05T05:53:06.780Z,10.67
2023-04-05T05:55:33.946Z,10.37
2023-04-05T05:58:01.028Z,10.90
2023-04-05T06:00:28.150Z,9.80
2023-04-05T06:02:55.492Z,10.40
2023-04-05T06:05:22.934Z,9.63
2023-04-05T06:07:50.015Z,10.10
2023-04-05T06:10:17.040Z,10.13
2023-04-05T06:12:44.084Z,9.47
2023-04-05T06:15:11.596Z,10.27
2023-04-05T06:17:42.770Z,10.33
2023-04-05T06:20:14.200Z,9.70
2023-04-05T06:22:44.659Z,11.17
2023-04-05T06:25:43.431Z,10.00
2023-04-05T06:28:53.475Z,9.70
2023-04-05T06:43:31.657Z,10.30
2023-04-05T06:46:13.956Z,10.43
2023-04-05T06:48:41.339Z,9.67
2023-04-05T06:51:08.869Z,10.20
2023-04-05T06:53:36.307Z,9.60
2023-04-05T06:56:03.513Z,9.43
2023-04-05T06:58:30.997Z,8.30
2023-04-05T07:00:58.638Z,9.43
2023-04-05T07:03:25.752Z,8.90
2023-04-05T07:05:54.356Z,9.20
2023-04-05T07:08:22.011Z,9.23
2023-04-05T07:10:50.459Z,8.97
2023-04-05T07:13:19.373Z,9.17
2023-04-05T07:15:46.851Z,9.23
2023-04-05T07:18:17.533Z,8.53
2023-04-05T07:20:52.336Z,8.13
2023-04-05T07:23:20.020Z,8.67
2023-04-05T07:25:48.315Z,9.17
2023-04-05T07:28:15.319Z,8.70
2023-04-05T07:30:42.600Z,8.43
2023-04-05T07:33:09.932Z,8.47
2023-04-05T07:35:37.263Z,8.43
2023-04-05T07:38:04.617Z,8.30
2023-04-05T07:40:31.692Z,7.57
2023-04-05T07:42:58.857Z,8.23
2023-04-05T07:45:26.304Z,7.53
2023-04-05T07:47:53.431Z,8.13
2023-04-05T07:50:20.715Z,8.10
2023-04-05T07:52:47.750Z,8.10
2023-04-05T07:55:14.832Z,7.97
2023-04-05T07:57:42.030Z,7.87
2023-04-05T08:00:13.582Z,7.07
2023-04-05T08:02:41.020Z,7.00
2023-04-05T08:05:08.539Z,7.27
2023-04-05T08:07:35.695Z,6.93
2023-04-05T08:10:04.759Z,7.07
2023-04-05T08:12:32.660Z,6.83
2023-04-05T08:14:59.683Z,6.53
2023-04-05T08:17:28.569Z,6.20
2023-04-05T08:19:56.459Z,6.27
2023-04-05T08:22:23.489Z,6.00
2023-04-05T08:24:50.652Z,6.20
2023-04-05T08:27:18.817Z,6.07
2023-04-05T08:29:45.924Z,6.17
2023-04-05T08:32:13.143Z,5.60
2023-04-05T08:34:40.321Z,5.77
2023-04-05T08:37:07.683Z,5.30
2023-04-05T08:39:37.857Z,5.07
2023-04-05T08:42:15.883Z,4.40
2023-04-05T08:44:48.477Z,5.33
2023-04-05T08:47:20.692Z,5.37
2023-04-05T08:49:48.970Z,4.87
2023-04-05T08:52:16.291Z,5.67
2023-04-05T08:54:43.812Z,5.10
2023-04-05T08:57:11.200Z,5.63
2023-04-05T08:59:42.418Z,4.70
2023-04-05T09:02:17.465Z,5.83
2023-04-05T09:04:46.359Z,5.40
2023-04-05T09:07:17.659Z,5.83
2023-04-05T09:09:54.868Z,5.25
2023-04-05T09:12:23.330Z,5.55
2023-04-05T09:14:52.006Z,5.25
2023-04-05T09:17:19.455Z,4.43
2023-04-05T09:19:46.645Z,4.65
2023-04-05T09:22:18.421Z,5.65
2023-04-05T09:24:47.145Z,6.28
2023-04-05T09:27:17.208Z,5.22
2023-04-05T09:29:47.574Z,5.32
2023-04-05T09:32:18.416Z,5.28
2023-04-05T09:34:45.970Z,5.18
2023-04-05T09:37:15.869Z,5.60
2023-04-05T09:39:44.314Z,5.47
2023-04-05T09:42:15.644Z,5.10
2023-04-05T09:45:05.245Z,5.88
2023-04-05T09:47:36.596Z,5.63
2023-04-05T09:50:22.025Z,6.22
2023-04-05T09:52:49.485Z,5.68
2023-04-05T09:55:28.099Z,6.43
2023-04-05T09:57:55.361Z,6.45
2023-04-05T10:00:23.257Z,5.55
2023-04-05T10:02:55.872Z,6.03
2023-04-05T10:05:29.299Z,5.55
2023-04-05T10:07:57.166Z,6.03
2023-04-05T10:10:26.132Z,5.35
2023-04-05T10:12:54.920Z,5.95
2023-04-05T10:15:23.429Z,4.97
2023-04-05T10:18:08.057Z,5.35
2023-04-05T10:20:43.839Z,5.45
2023-04-05T10:23:24.956Z,5.03
2023-04-05T10:25:53.202Z,5.57
2023-04-05T10:28:37.709Z,6.50
2023-04-05T10:31:37.769Z,6.72
2023-04-05T10:34:24.555Z,6.32
2023-04-05T10:37:00.937Z,6.25
2023-04-05T10:39:41.222Z,6.88
2023-04-05T10:42:20.374Z,6.10
2023-04-05T10:44:53.557Z,6.35
2023-04-05T10:47:27.358Z,6.85
2023-04-05T10:49:57.692Z,6.30
2023-04-05T10:52:25.751Z,6.00
2023-04-05T10:54:54.144Z,6.55
2023-04-05T10:57:22.952Z,6.00
2023-04-05T10:59:52.339Z,6.30
2023-04-05T11:02:20.051Z,6.03
2023-04-05T11:04:55.357Z,5.68
2023-04-05T11:07:22.944Z,6.15
2023-04-05T11:10:07.501Z,6.07
2023-04-05T11:12:46.904Z,5.88
2023-04-05T11:15:27.744Z,6.38
2023-04-05T11:18:22.633Z,6.28
2023-04-05T11:21:05.990Z,5.38
2023-04-05T11:23:33.137Z,5.55
2023-04-05T11:26:09.253Z,6.20
2023-04-05T11:28:42.018Z,5.45
2023-04-05T11:31:20.780Z,5.43
2023-04-05T11:33:55.679Z,5.35
2023-04-05T11:36:39.365Z,5.55
2023-04-05T11:39:18.739Z,5.35
2023-04-05T11:41:56.384Z,5.53
2023-04-05T11:44:24.802Z,5.35
2023-04-05T11:46:55.776Z,4.97
2023-04-05T11:49:25.269Z,5.47
2023-04-05T11:51:54.042Z,5.05
2023-04-05T11:54:32.437Z,5.18
2023-04-05T11:57:00.224Z,4.68
2023-04-05T11:59:35.948Z,5.47
2023-04-05T12:02:09.394Z,5.60
2023-04-05T12:04:37.959Z,5.70
2023-04-05T12:07:20.158Z,5.53
2023-04-05T12:10:13.955Z,5.63
2023-04-05T12:12:44.800Z,4.93
2023-04-05T12:15:19.116Z,5.53
2023-04-05T12:17:55.311Z,5.38
2023-04-05T12:20:24.784Z,5.28
2023-04-05T12:22:57.046Z,6.15
2023-04-05T12:25:24.925Z,6.22
2023-04-05T12:27:52.328Z,5.63
2023-04-05T12:30:22.857Z,5.43
2023-04-05T12:32:55.786Z,5.85
2023-04-05T12:35:35.197Z,5.75
2023-04-05T12:38:06.317Z,5.93
2023-04-05T12:40:37.785Z,5.68
2023-04-05T12:43:09.446Z,5.30
2023-04-05T12:45:40.560Z,5.60
2023-04-05T12:48:13.935Z,5.68
2023-04-05T12:50:49.635Z,5.70
2023-04-05T12:53:22.463Z,5.47
2023-04-05T12:55:55.514Z,5.80
2023-04-05T12:58:37.284Z,5.90
2023-04-05T13:01:04.714Z,5.43
2023-04-05T13:03:32.168Z,5.82
2023-04-05T13:05:59.596Z,6.30
2023-04-05T13:08:27.741Z,5.75
2023-04-05T13:10:57.736Z,6.50
2023-04-05T13:13:25.388Z,5.55
2023-04-05T13:15:52.797Z,5.50
2023-04-05T13:18:20.684Z,5.45
2023-04-05T13:20:48.052Z,5.07
2023-04-05T13:23:15.450Z,5.93
2023-04-05T13:25:46.881Z,6.00
2023-04-05T13:28:14.306Z,5.22
2023-04-05T13:30:41.470Z,5.90
2023-04-05T13:33:08.740Z,5.78
2023-04-05T13:35:35.849Z,5.88
2023-04-05T13:38:04.656Z,6.10
2023-04-05T13:40:32.700Z,6.10
2023-04-05T13:43:00.646Z,5.88
2023-04-05T13:45:28.125Z,5.72
2023-04-05T13:47:56.055Z,6.47
2023-04-05T13:50:23.333Z,6.28
2023-04-05T13:53:00.501Z,5.68
2023-04-05T13:55:27.540Z,5.70
2023-04-05T13:57:54.711Z,5.90
2023-04-05T14:00:22.163Z,5.82
2023-04-05T14:02:51.371Z,5.97
2023-04-05T14:05:18.700Z,6.65
2023-04-05T14:07:46.495Z,6.10
2023-04-05T14:10:13.661Z,6.50
2023-04-05T14:12:40.713Z,6.78
2023-04-05T14:15:08.397Z,6.15
2023-04-05T14:17:35.625Z,6.05
2023-04-05T14:20:02.673Z,5.57
2023-04-05T14:22:29.971Z,6.20
2023-04-05T14:24:57.083Z,6.45
2023-04-05T14:27:27.035Z,6.05
2023-04-05T14:29:57.280Z,6.57
2023-04-05T14:32:25.929Z,6.72
2023-04-05T14:34:53.184Z,6.32
2023-04-05T14:37:20.380Z,5.85
2023-04-05T14:39:47.652Z,6.10
2023-04-05T14:42:14.885Z,6.47
2023-04-05T14:44:42.163Z,6.15
2023-04-05T14:47:09.494Z,6.60
2023-04-05T14:49:36.482Z,6.60
2023-04-05T14:52:03.926Z,6.15
2023-04-05T14:54:30.969Z,6.30
2023-04-05T14:56:58.233Z,6.25
2023-04-05T14:59:26.351Z,6.20
2023-04-05T15:01:53.915Z,7.10
2023-04-05T15:04:21.208Z,6.28
2023-04-05T15:06:48.394Z,6.47
2023-04-05T15:09:15.624Z,6.55
2023-04-05T15:11:42.655Z,6.78
2023-04-05T15:14:13.377Z,6.65
2023-04-05T15:16:48.695Z,6.38
2023-04-05T15:19:16.394Z,6.38
2023-04-05T15:21:44.050Z,6.82
2023-04-05T15:24:11.886Z,6.75
2023-04-05T15:26:40.846Z,6.72
2023-04-05T15:29:07.941Z,6.22
2023-04-05T15:31:35.330Z,6.63
2023-04-05T15:34:08.250Z,6.35
2023-04-05T15:36:36.424Z,6.07
2023-04-05T15:39:05.341Z,6.68
2023-04-05T15:41:34.704Z,6.43
2023-04-05T15:44:02.069Z,6.45
2023-04-05T15:46:30.149Z,6.40
2023-04-05T15:48:57.246Z,6.25
2023-04-05T15:51:24.625Z,6.65
2023-04-05T15:53:52.141Z,6.43
2023-04-05T15:56:19.254Z,5.85
2023-04-05T15:58:46.454Z,6.43
2023-04-05T16:01:14.057Z,6.80
2023-04-05T16:03:42.056Z,6.50
2023-04-05T16:06:09.422Z,7.30
2023-04-05T16:08:36.676Z,6.22
2023-04-05T16:11:04.044Z,7.18
2023-04-05T16:13:31.348Z,7.43
2023-04-05T16:15:58.468Z,6.75
2023-04-05T16:18:26.123Z,6.85
2023-04-05T16:20:53.221Z,6.63
2023-04-05T16:23:20.549Z,5.95
2023-04-05T16:25:47.973Z,6.43
2023-04-05T16:28:15.350Z,5.88
2023-04-05T16:30:45.677Z,6.45
2023-04-05T16:33:14.802Z,5.60
2023-04-05T16:35:42.197Z,5.72
2023-04-05T16:38:09.340Z,5.65
2023-04-05T16:40:36.711Z,6.95
2023-04-05T16:43:03.880Z,6.50
2023-04-05T16:45:33.809Z,5.88
2023-04-05T16:48:01.015Z,6.20
2023-04-05T16:50:28.287Z,6.32
2023-04-05T16:52:55.532Z,5.28
2023-04-05T16:55:22.576Z,6.07
2023-04-05T16:57:50.006Z,4.85
2023-04-05T17:00:17.392Z,5.22
2023-04-05T17:02:44.703Z,5.35
2023-04-05T17:05:11.999Z,5.97
2023-04-05T17:07:39.143Z,6.78
2023-04-05T17:10:07.052Z,5.70
2023-04-05T17:12:35.306Z,5.60
2023-04-05T17:15:03.052Z,5.93
2023-04-05T17:17:30.526Z,6.13
2023-04-05T17:19:57.599Z,5.80
2023-04-05T17:22:24.873Z,5.60
2023-04-05T17:24:51.957Z,5.30
2023-04-05T17:27:19.128Z,6.85
2023-04-05T17:29:46.181Z,6.88
2023-04-05T17:32:13.272Z,7.40
2023-04-05T17:34:40.772Z,8.80
2023-04-05T17:37:07.874Z,7.93
2023-04-05T17:39:35.018Z,8.43
2023-04-05T17:42:02.262Z,8.48
2023-04-05T17:44:30.631Z,8.27
2023-04-05T17:47:08.516Z,7.82
2023-04-05T17:49:37.806Z,8.00
2023-04-05T17:52:08.593Z,8.25
2023-04-05T17:54:39.241Z,8.90
2023-04-05T17:57:07.302Z,8.60
2023-04-05T17:59:36.298Z,7.78
2023-04-05T18:02:03.465Z,10.30
2023-04-05T18:04:30.953Z,8.20
2023-04-05T18:06:58.316Z,9.20
2023-04-05T18:09:25.850Z,8.75
2023-04-05T18:11:52.906Z,7.57
2023-04-05T18:14:19.939Z,6.82
2023-04-05T18:16:47.335Z,6.95
2023-04-05T18:19:14.706Z,5.75
2023-04-05T18:21:41.783Z,5.90
2023-04-05T18:24:09.076Z,5.97
2023-04-05T18:26:36.158Z,6.57
2023-04-05T18:29:05.218Z,6.75
2023-04-05T18:31:32.708Z,6.32
2023-04-05T18:34:06.031Z,6.90
2023-04-05T18:36:33.266Z,6.57
2023-04-05T18:39:04.776Z,7.67
2023-04-05T18:41:32.465Z,7.17
2023-04-05T18:44:01.183Z,8.13
2023-04-05T18:46:28.546Z,8.43
2023-04-05T18:48:56.385Z,8.27
2023-04-05T18:51:26.042Z,8.57
2023-04-05T18:53:53.101Z,9.20
2023-04-05T18:56:21.301Z,9.60
2023-04-05T18:58:50.272Z,8.73
2023-04-05T19:01:19.000Z,8.00
2023-04-05T19:03:47.649Z,8.80
2023-04-05T19:06:15.579Z,8.27
2023-04-05T19:08:43.022Z,8.13
2023-04-05T19:11:13.723Z,8.63
2023-04-05T19:13:42.174Z,8.13
2023-04-05T19:16:09.557Z,8.40
2023-04-05T19:18:36.847Z,7.83
2023-04-05T19:21:04.170Z,9.30
2023-04-05T19:23:31.368Z,8.07
2023-04-05T19:25:58.974Z,8.67
2023-04-05T19:28:27.072Z,8.77
2023-04-05T19:30:54.860Z,9.03
2023-04-05T19:33:22.298Z,8.70
2023-04-05T19:35:49.666Z,8.53
2023-04-05T19:38:16.842Z,8.77
2023-04-05T19:40:44.190Z,8.13
2023-04-05T19:43:12.601Z,8.67
2023-04-05T19:45:40.100Z,8.67
2023-04-05T19:48:36.999Z,8.77
2023-04-05T19:51:09.448Z,8.40
2023-04-05T19:53:51.039Z,8.40
2023-04-05T19:56:32.574Z,8.37
2023-04-05T19:59:00.996Z,8.27
2023-04-05T20:01:32.463Z,8.97
2023-04-05T20:04:00.178Z,9.53
2023-04-05T20:06:28.236Z,8.97
2023-04-05T20:09:03.704Z,9.20
2023-04-05T20:11:31.665Z,13.07
2023-04-05T20:14:04.094Z,16.40
2023-04-05T20:16:37.067Z,15.23
2023-04-05T20:19:08.894Z,14.30
2023-04-05T20:21:38.631Z,14.67
2023-04-05T20:24:09.931Z,14.50
2023-04-05T20:26:37.221Z,13.97
2023-04-05T20:29:08.580Z,13.77
2023-04-05T20:31:40.121Z,13.27
2023-04-05T20:34:13.184Z,11.63
2023-04-05T20:37:02.193Z,12.13
2023-04-05T20:39:30.999Z,11.20
2023-04-05T20:41:58.479Z,10.17
2023-04-05T20:44:26.466Z,10.40
2023-04-05T20:46:56.100Z,11.43
2023-04-05T20:49:24.656Z,10.67
2023-04-05T20:51:52.115Z,11.17
2023-04-05T20:54:20.310Z,11.50
2023-04-05T20:56:47.452Z,9.97
2023-04-05T20:59:17.373Z,9.77
2023-04-05T21:01:47.249Z,10.50
2023-04-05T21:04:14.873Z,9.90
2023-04-05T21:06:42.401Z,9.83
2023-04-05T21:09:10.274Z,9.43
2023-04-05T21:11:37.902Z,8.63
2023-04-05T21:14:05.209Z,10.03
2023-04-05T21:16:32.359Z,9.33
2023-04-05T21:18:59.504Z,10.40
2023-04-05T21:21:27.467Z,9.47
2023-04-05T21:23:54.781Z,9.53
2023-04-05T21:26:21.934Z,9.33
2023-04-05T21:28:49.048Z,8.67
2023-04-05T21:31:16.538Z,9.47
2023-04-05T21:33:43.688Z,9.20
2023-04-05T21:36:11.388Z,9.77
2023-04-05T21:38:38.554Z,9.83
2023-04-05T21:41:06.009Z,9.30
2023-04-05T21:43:33.081Z,10.20
2023-04-05T21:46:00.111Z,9.13
2023-04-05T21:48:28.481Z,8.50
2023-04-05T21:50:56.048Z,8.77
2023-04-05T21:53:25.704Z,9.40
2023-04-05T21:55:53.804Z,9.43
2023-04-05T21:58:20.921Z,9.57
2023-04-05T22:00:48.045Z,9.13
2023-04-05T22:03:15.131Z,9.67
2023-04-05T22:05:42.265Z,8.90
2023-04-05T22:08:09.726Z,8.97
2023-04-05T22:10:37.791Z,8.80
2023-04-05T22:13:04.881Z,9.63
2023-04-05T22:15:32.013Z,9.40
2023-04-05T22:17:59.302Z,9.97
2023-04-05T22:20:26.703Z,9.27
2023-04-05T22:22:55.017Z,9.50
2023-04-05T22:25:22.403Z,10.07
2023-04-05T22:27:49.445Z,9.70
2023-04-05T22:30:16.740Z,10.03
2023-04-05T22:32:43.933Z,10.40
2023-04-05T22:35:11.194Z,10.63
2023-04-05T22:37:38.327Z,10.33
2023-04-05T22:40:06.292Z,9.80
2023-04-05T22:42:33.337Z,10.90
2023-04-05T22:45:03.177Z,10.73
2023-04-05T22:47:30.366Z,11.03
2023-04-05T22:49:57.507Z,10.17
2023-04-05T22:52:24.962Z,11.37
2023-04-05T22:54:52.088Z,10.60
2023-04-05T22:57:19.152Z,10.47
2023-04-05T22:59:46.125Z,9.80
2023-04-05T23:02:13.166Z,10.27
2023-04-05T23:04:40.381Z,10.80
2023-04-05T23:07:09.153Z,10.40
2023-04-05T23:09:36.203Z,11.17
2023-04-05T23:12:03.364Z,10.87
2023-04-05T23:14:30.540Z,10.83
2023-04-05T23:16:57.922Z,9.63
2023-04-05T23:19:25.036Z,10.07
2023-04-05T23:21:52.967Z,10.83
2023-04-05T23:24:19.988Z,10.63
2023-04-05T23:26:46.982Z,10.10
2023-04-05T23:29:14.004Z,10.30
2023-04-05T23:31:41.299Z,9.80
2023-04-05T23:34:08.414Z,10.83
2023-04-05T23:36:35.500Z,10.77
2023-04-05T23:39:02.626Z,10.70
2023-04-05T23:41:29.761Z,9.57
2023-04-05T23:43:57.103Z,10.97
2023-04-05T23:46:24.367Z,10.30
2023-04-05T23:48:52.151Z,9.40
2023-04-05T23:51:19.311Z,10.23
2023-04-05T23:53:46.458Z,10.57
2023-04-05T23:56:14.869Z,11.00
2023-04-05T23:58:45.610Z,10.90
